Time;durP1;ratioP1;P1;durP2;ratioP2;P2;SDS_P1;SDS_P2;PMS_P1;PMS_P2;Temp;Humidity;BMP_temperature;BMP_pressure;BME280_temperature;BME280_humidity;BME280_pressure;Samples;Min_cycle;Max_cycle;Signal;HPM_P1;HPM_P2
2023/02/15 00:02:19;;;;;;;32.57;17.63;;;;;;;4.59;57.96;100148.53;7086975;27;20224;-79
2023/02/15 00:05:41;;;;;;;24.13;16.40;;;;;;;4.79;57.53;100134.28;7091866;27;20269;-78
2023/02/15 00:09:02;;;;;;;27.67;16.70;;;;;;;4.69;57.07;100147.63;7087164;27;20730;-78
2023/02/15 00:12:24;;;;;;;30.93;17.47;;;;;;;4.46;58.03;100140.78;7086568;27;20226;-78
2023/02/15 00:15:46;;;;;;;27.53;17.77;;;;;;;4.30;58.57;100150.28;7079762;27;20201;-78
2023/02/15 00:19:08;;;;;;;29.50;19.37;;;;;;;4.04;58.29;100131.16;7086070;27;20659;-78
2023/02/15 00:22:30;;;;;;;27.20;15.70;;;;;;;4.08;58.91;100135.25;7088059;27;20212;-78
2023/02/15 00:25:51;;;;;;;25.87;17.80;;;;;;;4.01;58.47;100128.75;7088483;27;20300;-79
2023/02/15 00:29:14;;;;;;;23.40;17.50;;;;;;;4.33;58.43;100131.31;7089282;27;20791;-79
2023/02/15 00:32:37;;;;;;;26.27;16.30;;;;;;;4.17;57.48;100128.25;7088953;27;20291;-79
2023/02/15 00:35:58;;;;;;;23.20;16.07;;;;;;;4.11;57.38;100120.78;7088476;27;20233;-79
2023/02/15 00:39:20;;;;;;;24.73;15.23;;;;;;;4.56;57.19;100125.66;7088457;27;20243;-79
2023/02/15 00:42:41;;;;;;;30.33;17.23;;;;;;;4.27;56.59;100115.81;7088334;27;20272;-78
2023/02/15 00:46:03;;;;;;;25.33;16.10;;;;;;;4.33;56.72;100117.94;7087755;27;20290;-78
2023/02/15 00:49:26;;;;;;;28.93;15.57;;;;;;;4.60;56.72;100136.91;7088564;27;20288;-79
2023/02/15 00:52:48;;;;;;;27.33;16.57;;;;;;;4.46;56.62;100108.75;7088194;27;20315;-79
2023/02/15 00:56:09;;;;;;;25.80;16.33;;;;;;;4.56;56.60;100082.91;7087746;27;20346;-79
2023/02/15 00:59:31;;;;;;;23.83;15.33;;;;;;;4.71;56.12;100134.13;7088082;27;20739;-78
2023/02/15 01:02:52;;;;;;;23.70;16.03;;;;;;;4.70;55.89;100116.38;7087331;27;20290;-79
2023/02/15 01:06:16;;;;;;;25.23;16.27;;;;;;;4.00;57.86;100123.53;7085442;27;20337;-78
2023/02/15 01:09:37;;;;;;;22.63;15.83;;;;;;;4.17;57.89;100125.59;7085571;27;20962;-78
2023/02/15 01:12:59;;;;;;;27.63;17.00;;;;;;;4.36;56.87;100093.66;7084845;27;20362;-78
2023/02/15 01:16:21;;;;;;;30.57;16.83;;;;;;;4.00;56.86;100121.72;7084324;27;20634;-78
2023/02/15 01:19:42;;;;;;;27.23;15.73;;;;;;;3.87;58.12;100113.09;7084834;27;20220;-78
2023/02/15 01:23:06;;;;;;;26.67;16.13;;;;;;;4.10;57.96;100103.94;7083853;27;20334;-78
2023/02/15 01:26:27;;;;;;;25.20;15.53;;;;;;;3.97;57.71;100119.34;7084380;27;20316;-78
2023/02/15 01:29:49;;;;;;;26.47;15.93;;;;;;;3.73;59.03;100115.25;7099927;27;20229;-78
2023/02/15 01:33:17;;;;;;;26.93;16.23;;;;;;;3.73;58.57;100115.25;7086998;27;20255;-78
2023/02/15 01:36:38;;;;;;;28.37;16.13;;;;;;;3.69;58.03;100106.66;7084280;27;20587;-79
2023/02/15 01:40:02;;;;;;;27.40;17.23;;;;;;;3.69;58.53;100120.00;7084286;27;20362;-77
2023/02/15 01:43:40;;;;;;;27.63;16.67;;;;;;;3.69;57.73;100111.13;7084472;27;20207;-78
2023/02/15 01:47:01;;;;;;;28.27;16.10;;;;;;;4.00;57.79;100092.38;7083621;27;20284;-79
2023/02/15 01:50:27;;;;;;;25.37;15.80;;;;;;;3.77;57.66;100112.16;7084095;27;20294;-78
2023/02/15 01:53:52;;;;;;;25.63;15.53;;;;;;;4.07;57.78;100111.38;7085156;27;20211;-78
2023/02/15 01:57:18;;;;;;;25.80;15.97;;;;;;;4.00;57.25;100104.84;7088955;27;20306;-78
2023/02/15 02:00:40;;;;;;;46.13;25.13;;;;;;;3.58;57.26;100109.38;7090229;27;20194;-78
2023/02/15 02:04:06;;;;;;;33.80;19.90;;;;;;;3.80;57.11;100113.72;7089810;27;20715;-78
2023/02/15 02:07:30;;;;;;;25.10;15.97;;;;;;;3.59;56.85;100096.91;7089362;27;20230;-78
2023/02/15 02:10:51;;;;;;;23.90;15.83;;;;;;;3.65;57.00;100091.88;7089390;27;20741;-80
2023/02/15 02:14:14;;;;;;;27.03;16.63;;;;;;;3.31;57.48;100046.88;7083135;27;20228;-79
2023/02/15 02:17:43;;;;;;;26.30;16.70;;;;;;;3.88;57.53;100095.25;7088756;27;20225;-78
2023/02/15 02:21:37;;;;;;;26.93;15.93;;;;;;;4.27;56.65;100083.78;7089905;27;20269;-79
2023/02/15 02:25:20;;;;;;;24.27;15.93;;;;;;;3.95;56.19;100101.75;7090852;27;20288;-77
2023/02/15 02:29:00;;;;;;;26.63;16.40;;;;;;;3.73;56.51;100085.91;7089159;27;20307;-78
2023/02/15 02:32:55;;;;;;;28.80;16.63;;;;;;;3.53;57.66;100087.59;7089185;27;20212;-78
2023/02/15 02:36:25;;;;;;;25.90;16.03;;;;;;;3.52;57.29;100079.72;7088565;27;20686;-78
2023/02/15 02:39:52;;;;;;;27.70;16.47;;;;;;;3.51;57.45;100081.56;7088527;27;20211;-78
2023/02/15 02:43:19;;;;;;;27.30;16.20;;;;;;;3.46;57.30;100078.41;7088836;27;20618;-77
2023/02/15 02:46:49;;;;;;;29.57;18.30;;;;;;;3.34;57.69;100075.94;7088015;27;20280;-78
2023/02/15 02:50:15;;;;;;;25.83;16.53;;;;;;;3.01;58.48;100042.28;7088510;27;20210;-78
2023/02/15 02:53:38;;;;;;;26.17;16.13;;;;;;;3.42;57.66;100095.63;7088228;27;20220;-78
2023/02/15 02:57:02;;;;;;;26.90;15.77;;;;;;;3.41;58.17;100083.28;7087458;27;20360;-77
2023/02/15 03:00:26;;;;;;;27.70;16.50;;;;;;;2.97;58.84;100091.50;7088411;27;20624;-77
2023/02/15 03:03:49;;;;;;;25.87;17.63;;;;;;;2.81;60.10;100096.38;7088335;27;20207;-77
2023/02/15 03:07:13;;;;;;;27.27;17.63;;;;;;;3.26;59.94;100089.91;7086877;27;20248;-77
2023/02/15 03:10:38;;;;;;;32.80;19.77;;;;;;;3.43;59.58;100092.00;7088043;27;20210;-77
2023/02/15 03:13:59;;;;;;;30.47;17.57;;;;;;;3.59;58.60;100068.41;7087601;27;20223;-77
2023/02/15 03:17:22;;;;;;;26.80;17.60;;;;;;;3.63;58.55;100083.19;7086778;27;20235;-77
2023/02/15 03:20:44;;;;;;;26.90;17.50;;;;;;;3.54;58.29;100088.44;7087508;27;20295;-78
2023/02/15 03:24:09;;;;;;;22.70;15.60;;;;;;;3.28;57.15;100004.50;7086796;27;20201;-77
2023/02/15 03:27:35;;;;;;;22.60;15.27;;;;;;;3.29;57.00;100075.47;7086582;27;20219;-77
2023/02/15 03:31:00;;;;;;;23.37;14.87;;;;;;;3.52;56.11;100090.38;7087075;27;20251;-77
2023/02/15 03:34:22;;;;;;;26.53;16.70;;;;;;;3.69;56.64;100096.00;7086673;27;20262;-77
2023/02/15 03:37:48;;;;;;;32.17;18.30;;;;;;;3.44;57.80;100087.53;7087635;27;20785;-78
2023/02/15 03:41:11;;;;;;;39.47;19.30;;;;;;;3.72;58.10;100066.38;7089921;27;20698;-77
2023/02/15 03:44:38;;;;;;;32.30;18.77;;;;;;;3.92;56.84;100056.66;7087184;27;20196;-77
2023/02/15 03:48:01;;;;;;;30.23;19.90;;;;;;;3.95;56.67;100073.25;7086701;27;20310;-77
2023/02/15 03:51:35;;;;;;;32.30;18.43;;;;;;;3.32;56.98;100048.56;7089110;27;20350;-77
2023/02/15 03:54:57;;;;;;;32.23;19.33;;;;;;;3.20;58.99;100070.94;7088712;27;20228;-77
2023/02/15 04:02:10;;;;;;;33.63;19.17;;;;;;;3.23;58.51;100068.00;7088758;27;20192;-77
2023/02/15 04:05:32;;;;;;;33.67;18.17;;;;;;;3.21;58.12;100073.47;7088744;27;20279;-77
2023/02/15 04:12:32;;;;;;;27.43;17.07;;;;;;;3.15;58.97;100083.78;7088165;27;20683;-77
2023/02/15 04:16:04;;;;;;;28.60;17.33;;;;;;;3.20;58.41;100089.59;7074308;27;20354;-77
2023/02/15 04:26:47;;;;;;;34.47;18.60;;;;;;;3.50;57.27;100071.88;7059340;28;20220;-78
2023/02/15 04:30:10;;;;;;;28.37;17.53;;;;;;;3.23;57.56;100065.31;7059908;28;20209;-77
2023/02/15 04:33:31;;;;;;;28.07;16.87;;;;;;;3.42;57.48;100076.16;7058653;28;20311;-77
2023/02/15 04:36:54;;;;;;;28.53;17.60;;;;;;;3.43;57.20;100077.84;7056788;28;20790;-78
2023/02/15 04:40:16;;;;;;;34.33;18.60;;;;;;;3.73;56.83;100064.56;7056796;28;20265;-78
2023/02/15 04:43:38;;;;;;;56.57;20.77;;;;;;;3.10;56.91;100062.84;7057609;28;20324;-77
2023/02/15 04:46:59;;;;;;;39.33;19.60;;;;;;;3.05;59.05;100049.06;7056359;28;20278;-77
2023/02/15 04:50:21;;;;;;;39.70;18.83;;;;;;;3.32;59.08;100067.22;7057285;28;20685;-77
2023/02/15 04:53:44;;;;;;;53.77;20.93;;;;;;;3.43;58.47;100060.00;7056769;28;20237;-77
2023/02/15 04:57:06;;;;;;;75.00;23.20;;;;;;;3.24;60.88;100059.03;7055755;28;20289;-77
2023/02/15 05:00:27;;;;;;;53.90;24.10;;;;;;;3.47;59.42;100071.25;7056714;28;20221;-77
2023/02/15 05:03:49;;;;;;;45.33;22.40;;;;;;;3.69;59.13;100061.31;7056233;28;20337;-78
2023/02/15 05:07:10;;;;;;;50.30;21.23;;;;;;;3.59;58.89;100068.41;7055751;28;20310;-77
2023/02/15 05:10:33;;;;;;;109.03;27.03;;;;;;;3.01;58.61;100063.59;7056020;28;20198;-77
2023/02/15 05:13:54;;;;;;;56.67;24.40;;;;;;;2.18;59.83;100068.78;7056065;28;20284;-77
2023/02/15 05:17:16;;;;;;;50.03;23.70;;;;;;;2.91;59.95;100054.72;7055548;28;20259;-77
2023/02/15 05:20:37;;;;;;;53.63;24.43;;;;;;;3.45;59.76;100050.09;7056204;28;20296;-79
2023/02/15 05:23:59;;;;;;;50.40;22.27;;;;;;;3.45;59.25;100034.09;7055396;28;20566;-77
2023/02/15 05:31:04;;;;;;;42.97;21.63;;;;;;;3.31;58.45;100054.88;7060339;28;20177;-77
2023/02/15 05:34:26;;;;;;;35.30;19.47;;;;;;;2.85;59.42;100051.69;7061625;28;20209;-77
2023/02/15 05:37:47;;;;;;;38.30;20.93;;;;;;;2.43;59.30;100056.03;7061027;28;20645;-77
2023/02/15 05:41:10;;;;;;;83.73;22.27;;;;;;;2.54;59.40;100061.31;7061493;28;20274;-77
2023/02/15 05:44:33;;;;;;;34.07;19.90;;;;;;;2.59;60.35;100056.47;7061535;28;20196;-77
2023/02/15 05:47:54;;;;;;;34.40;19.87;;;;;;;2.51;59.57;100066.06;7060465;28;20225;-77
2023/02/15 05:51:16;;;;;;;44.87;20.17;;;;;;;2.70;59.95;100060.94;7061613;28;20208;-77
2023/02/15 05:54:38;;;;;;;38.87;21.63;;;;;;;2.42;60.54;100061.50;7061824;28;20667;-77
2023/02/15 05:57:59;;;;;;;37.20;20.40;;;;;;;2.41;60.85;100057.97;7059843;28;20277;-77
2023/02/15 06:01:22;;;;;;;36.40;20.00;;;;;;;2.93;60.50;100067.88;7060306;28;20304;-80
2023/02/15 06:04:44;;;;;;;37.13;20.67;;;;;;;2.66;60.00;100054.19;7059783;28;20287;-77
2023/02/15 06:08:05;;;;;;;38.33;20.03;;;;;;;2.90;59.81;100073.47;7071160;27;20249;-77
2023/02/15 06:11:27;;;;;;;40.70;22.20;;;;;;;2.99;59.95;100070.88;7084065;27;20264;-77
2023/02/15 06:14:48;;;;;;;52.93;24.33;;;;;;;2.14;60.41;100056.69;7079282;27;20583;-77
2023/02/15 06:18:11;;;;;;;68.47;25.07;;;;;;;1.93;62.65;100079.63;7068775;27;20280;-77
2023/02/15 06:21:33;;;;;;;44.23;23.53;;;;;;;2.44;62.57;100072.84;7075163;27;20197;-77
2023/02/15 06:24:54;;;;;;;49.00;24.37;;;;;;;2.83;61.52;100041.16;7071848;27;20287;-78
2023/02/15 06:28:16;;;;;;;51.33;24.30;;;;;;;3.37;59.68;100071.19;7082591;27;20373;-77
2023/02/15 06:31:37;;;;;;;52.97;23.33;;;;;;;3.14;59.55;100074.94;7089509;27;20498;-77
2023/02/15 06:35:00;;;;;;;51.83;27.93;;;;;;;3.17;59.71;100068.50;7081033;27;20373;-77
2023/02/15 06:38:21;;;;;;;49.37;24.40;;;;;;;3.45;58.43;100084.72;7064830;27;20374;-77
2023/02/15 06:41:43;;;;;;;37.93;21.50;;;;;;;3.44;58.50;100099.03;7061019;28;20233;-77
2023/02/15 06:45:05;;;;;;;41.37;22.43;;;;;;;3.47;57.82;100092.56;7062417;28;20292;-77
2023/02/15 06:48:26;;;;;;;43.10;22.57;;;;;;;3.25;57.79;100080.22;7061527;28;20311;-77
2023/02/15 06:51:49;;;;;;;34.47;20.63;;;;;;;3.30;58.31;100082.50;7073434;27;20296;-77
2023/02/15 06:55:10;;;;;;;49.80;21.67;;;;;;;3.03;57.83;100088.31;7089287;27;20292;-77
2023/02/15 06:58:32;;;;;;;56.60;23.47;;;;;;;2.84;58.41;100100.59;7088596;27;20307;-77
2023/02/15 07:01:53;;;;;;;51.23;23.93;;;;;;;3.23;58.75;100099.97;7089038;27;20722;-77
2023/02/15 07:05:15;;;;;;;41.63;22.50;;;;;;;3.39;58.46;100103.06;7089018;27;20196;-77
2023/02/15 07:08:39;;;;;;;60.40;23.40;;;;;;;3.05;58.55;100102.34;7088244;27;20234;-78
2023/02/15 07:15:39;;;;;;;62.53;23.93;;;;;;;2.97;58.11;100075.50;7088223;27;20209;-78
2023/02/15 07:19:01;;;;;;;52.03;23.00;;;;;;;2.99;59.17;100110.84;7085711;27;20307;-79
2023/02/15 07:22:23;;;;;;;41.63;23.47;;;;;;;3.49;58.39;100107.47;7074158;27;20211;-79
2023/02/15 07:25:45;;;;;;;54.70;28.17;;;;;;;3.52;57.38;100104.56;7087301;27;20279;-83
2023/02/15 07:29:07;;;;;;;38.33;20.83;;;;;;;3.38;58.15;100102.22;7087077;27;20310;-79
2023/02/15 07:32:30;;;;;;;33.87;18.93;;;;;;;3.51;57.84;100113.53;7088114;27;20197;-77
2023/02/15 07:35:53;;;;;;;34.90;18.63;;;;;;;3.12;58.78;100102.69;7087070;27;20713;-78
2023/02/15 07:39:15;;;;;;;41.40;20.03;;;;;;;2.89;58.34;100115.22;7087527;27;20229;-79
2023/02/15 07:42:38;;;;;;;43.77;21.30;;;;;;;2.76;59.51;100113.69;7087422;27;20234;-79
2023/02/15 07:46:00;;;;;;;35.23;21.10;;;;;;;2.88;59.69;100110.88;7087136;27;20293;-79
2023/02/15 07:49:21;;;;;;;42.93;21.70;;;;;;;2.82;60.24;100105.19;7087019;27;20361;-79
2023/02/15 07:52:43;;;;;;;49.93;21.60;;;;;;;2.99;60.71;100091.34;7087490;27;20314;-79
2023/02/15 07:56:06;;;;;;;111.80;26.73;;;;;;;3.49;58.76;100096.81;7086863;27;20279;-79
2023/02/15 07:59:29;;;;;;;34.57;21.30;;;;;;;4.05;59.03;100082.16;7077366;27;20225;-79
2023/02/15 08:03:12;;;;;;;39.17;20.63;;;;;;;4.16;58.32;100091.88;7064686;28;20289;-79
2023/02/15 08:06:35;;;;;;;57.33;23.07;;;;;;;3.70;59.18;100059.47;7065138;27;20706;-78
2023/02/15 08:09:57;;;;;;;38.10;19.60;;;;;;;4.69;56.41;100048.78;7086493;27;20204;-79
2023/02/15 08:13:18;;;;;;;38.50;20.60;;;;;;;4.34;56.75;100064.44;7087033;27;20296;-79
2023/02/15 08:16:42;;;;;;;25.83;17.27;;;;;;;6.19;54.65;100057.81;7080959;27;20268;-79
2023/02/15 08:20:04;;;;;;;24.53;17.10;;;;;;;7.64;49.98;100063.69;7086082;27;20201;-79
2023/02/15 08:23:25;;;;;;;21.37;15.53;;;;;;;8.69;45.12;100074.09;7085369;27;20291;-79
2023/02/15 08:26:47;;;;;;;25.17;15.40;;;;;;;8.57;45.28;100076.25;7086089;27;20828;-79
2023/02/15 08:30:09;;;;;;;26.40;16.57;;;;;;;8.83;44.61;100071.63;7086721;27;20211;-81
2023/02/15 08:33:32;;;;;;;24.10;17.43;;;;;;;9.64;43.95;100081.50;7086883;27;20294;-79
2023/02/15 08:36:54;;;;;;;24.20;17.33;;;;;;;9.68;42.78;100064.03;7082251;27;20256;-79
2023/02/15 08:40:15;;;;;;;25.20;17.00;;;;;;;8.59;45.77;100073.38;7086376;27;20301;-79
2023/02/15 08:43:37;;;;;;;21.03;15.33;;;;;;;8.10;47.00;100083.00;7085916;27;20345;-79
2023/02/15 08:47:03;;;;;;;26.53;17.50;;;;;;;7.27;47.74;100012.94;7086646;27;20303;-78
2023/02/15 08:50:26;;;;;;;23.60;15.13;;;;;;;8.97;45.13;100076.38;7080206;27;20230;-80
2023/02/15 08:53:49;;;;;;;23.60;16.50;;;;;;;8.47;46.75;100063.91;7070287;27;20255;-80
2023/02/15 08:57:11;;;;;;;20.73;16.47;;;;;;;8.22;47.44;100072.84;7066261;27;20234;-79
2023/02/15 09:00:32;;;;;;;28.13;19.47;;;;;;;6.85;50.34;100057.41;7084509;27;20228;-79
2023/02/15 09:03:57;;;;;;;22.53;17.30;;;;;;;6.42;52.12;100075.19;7070729;28;20236;-79
2023/02/15 09:07:20;;;;;;;34.73;19.47;;;;;;;6.17;53.61;100082.03;7085148;27;20349;-80
2023/02/15 09:10:41;;;;;;;50.40;23.73;;;;;;;4.79;56.44;100087.03;7088364;27;20624;-80
2023/02/15 09:14:05;;;;;;;45.87;27.33;;;;;;;5.10;57.12;100085.97;7088978;27;20226;-78
2023/02/15 09:17:26;;;;;;;33.63;21.37;;;;;;;5.41;56.79;100082.16;7088186;27;20230;-78
2023/02/15 09:20:48;;;;;;;35.00;20.60;;;;;;;5.40;57.32;100077.81;7088343;27;20725;-78
2023/02/15 09:24:14;;;;;;;34.17;20.63;;;;;;;5.66;56.78;100056.66;7087059;27;20211;-79
2023/02/15 09:27:36;;;;;;;37.03;23.90;;;;;;;5.14;58.35;100063.28;7074163;27;20270;-79
2023/02/15 09:30:57;;;;;;;30.57;21.17;;;;;;;5.26;58.17;100048.78;7087696;27;20646;-79
2023/02/15 09:34:21;;;;;;;30.73;20.33;;;;;;;5.51;57.49;100045.56;7078846;27;20220;-79
2023/02/15 09:37:42;;;;;;;33.30;20.17;;;;;;;5.65;57.66;100046.94;7080816;28;20316;-79
2023/02/15 09:41:21;;;;;;;27.67;19.57;;;;;;;5.57;57.74;100052.16;7086856;27;20720;-80
2023/02/15 09:45:11;;;;;;;29.27;20.70;;;;;;;5.69;57.13;100021.56;7087710;27;20324;-78
2023/02/15 09:48:40;;;;;;;27.33;17.30;;;;;;;5.48;56.23;100024.44;7083087;27;20318;-78
2023/02/15 09:52:32;;;;;;;23.77;16.37;;;;;;;5.40;56.53;100034.16;7088727;27;20284;-78
2023/02/15 09:55:58;;;;;;;23.60;16.60;;;;;;;6.13;55.60;100023.59;7088342;27;20314;-80
2023/02/15 09:59:29;;;;;;;25.53;17.80;;;;;;;7.54;53.25;100036.13;7084729;27;20231;-78
2023/02/15 10:03:02;;;;;;;25.33;17.03;;;;;;;6.99;54.00;100035.47;7059198;28;20198;-78
2023/02/15 10:06:33;;;;;;;23.47;17.37;;;;;;;7.05;53.12;100036.69;7059781;28;20259;-78
2023/02/15 10:10:05;;;;;;;24.57;17.43;;;;;;;7.75;53.62;100024.03;7090781;27;20210;-78
2023/02/15 10:13:34;;;;;;;25.43;17.43;;;;;;;8.01;51.25;100015.97;7058816;28;20223;-78
2023/02/15 10:17:04;;;;;;;25.97;17.57;;;;;;;7.88;51.05;99972.56;7057280;27;20270;-78
2023/02/15 10:20:29;;;;;;;23.87;16.60;;;;;;;7.26;52.22;99976.34;7060072;27;20286;-78
2023/02/15 10:24:02;;;;;;;24.70;16.47;;;;;;;8.98;50.58;100000.88;7059836;28;20207;-78
2023/02/15 10:27:24;;;;;;;23.30;17.33;;;;;;;9.25;49.28;99988.97;7060430;28;20310;-78
2023/02/15 10:30:48;;;;;;;21.90;17.10;;;;;;;8.56;49.58;99988.53;7061457;28;20351;-78
2023/02/15 10:34:17;;;;;;;22.73;18.00;;;;;;;9.08;49.26;99963.06;7060423;28;20254;-78
2023/02/15 10:37:46;;;;;;;21.03;15.20;;;;;;;8.34;51.10;99989.13;7078101;27;20300;-81
2023/02/15 10:41:16;;;;;;;22.50;16.47;;;;;;;8.58;51.25;99978.47;7093032;27;20255;-81
2023/02/15 10:44:48;;;;;;;22.27;16.63;;;;;;;9.04;50.09;99940.22;7090168;27;20328;-82
2023/02/15 10:48:51;;;;;;;21.23;16.13;;;;;;;10.36;47.28;99963.69;7090593;27;20223;-78
2023/02/15 10:52:25;;;;;;;20.40;14.63;;;;;;;10.63;47.21;99963.19;7074379;27;20196;-78
2023/02/15 10:55:53;;;;;;;24.27;17.70;;;;;;;10.84;47.12;99971.50;7077660;27;20207;-80
2023/02/15 10:59:30;;;;;;;22.17;15.97;;;;;;;9.89;48.42;99921.56;7096583;27;20229;-79
2023/02/15 11:03:03;;;;;;;22.87;16.63;;;;;;;10.82;47.62;99927.69;7097047;27;20288;-79
2023/02/15 11:06:27;;;;;;;22.67;16.07;;;;;;;10.59;47.55;99920.56;7097240;27;20258;-79
2023/02/15 11:09:53;;;;;;;22.27;16.83;;;;;;;10.60;48.12;99895.28;7065986;27;20212;-80
2023/02/15 11:13:16;;;;;;;23.13;16.50;;;;;;;11.32;46.68;99908.16;7082612;27;20210;-77
2023/02/15 11:16:40;;;;;;;21.53;15.53;;;;;;;11.88;46.03;99937.34;7092843;27;20365;-79
2023/02/15 11:20:09;;;;;;;21.73;16.63;;;;;;;11.67;46.18;99924.56;7097923;27;20196;-79
2023/02/15 11:23:33;;;;;;;21.33;16.43;;;;;;;11.63;45.23;99890.03;7096173;27;20276;-79
2023/02/15 11:26:58;;;;;;;23.80;17.73;;;;;;;11.55;45.80;99908.97;7095797;27;20220;-79
2023/02/15 11:30:22;;;;;;;20.47;17.03;;;;;;;11.68;45.65;99912.75;7091297;27;20446;-79
2023/02/15 11:33:46;;;;;;;20.47;16.13;;;;;;;12.29;44.74;99903.38;7088860;27;20323;-79
2023/02/15 11:37:10;;;;;;;19.10;16.33;;;;;;;11.83;45.18;99912.75;7088273;27;20314;-80
2023/02/15 11:40:35;;;;;;;22.60;16.10;;;;;;;12.29;43.96;99892.56;7088117;27;20733;-80
2023/02/15 11:44:05;;;;;;;21.57;16.97;;;;;;;12.12;45.10;99910.03;7088850;27;20551;-79
2023/02/15 11:47:27;;;;;;;22.77;18.13;;;;;;;12.63;44.72;99911.72;7076097;27;20550;-79
2023/02/15 11:50:48;;;;;;;22.33;17.13;;;;;;;12.61;43.73;99902.94;7070657;27;20198;-79
2023/02/15 11:54:10;;;;;;;24.37;16.80;;;;;;;11.84;45.36;99863.06;7087555;27;20283;-79
2023/02/15 11:57:35;;;;;;;21.63;16.50;;;;;;;12.84;44.48;99903.59;7086187;27;20283;-79
2023/02/15 12:01:02;;;;;;;22.03;16.43;;;;;;;13.03;44.06;99902.97;7059852;28;20206;-79
2023/02/15 12:04:26;;;;;;;22.97;15.07;;;;;;;12.66;44.22;99905.91;7059051;28;20199;-80
2023/02/15 12:07:51;;;;;;;20.07;14.70;;;;;;;13.07;43.42;99891.59;7072955;27;20312;-79
2023/02/15 12:11:16;;;;;;;27.77;15.30;;;;;;;13.58;43.23;99892.19;7087840;27;20678;-79
2023/02/15 12:14:48;;;;;;;19.57;16.23;;;;;;;13.42;43.47;99892.50;7087632;27;20241;-80
2023/02/15 12:18:19;;;;;;;18.93;13.90;;;;;;;13.66;41.46;99892.88;7095030;27;20221;-79
2023/02/15 12:21:42;;;;;;;18.00;14.47;;;;;;;13.62;41.84;99891.59;7097180;27;20299;-79
2023/02/15 12:25:05;;;;;;;19.07;13.47;;;;;;;13.95;41.14;99887.22;7091223;27;20292;-80
2023/02/15 12:28:32;;;;;;;17.87;13.90;;;;;;;13.83;41.42;99879.84;7088668;27;20710;-79
2023/02/15 12:31:54;;;;;;;17.63;13.80;;;;;;;14.37;40.69;99878.03;7077792;27;20236;-78
2023/02/15 12:35:22;;;;;;;19.00;14.27;;;;;;;13.74;41.33;99875.63;7061185;28;20225;-77
2023/02/15 12:38:43;;;;;;;16.77;13.53;;;;;;;14.01;41.69;99881.00;7078696;27;20372;-79
2023/02/15 12:42:15;;;;;;;17.47;14.63;;;;;;;13.61;42.33;99865.53;7086336;27;20290;-77
2023/02/15 12:45:38;;;;;;;21.10;14.10;;;;;;;13.44;42.66;99866.88;7085873;27;20780;-78
2023/02/15 12:49:08;;;;;;;19.00;13.97;;;;;;;14.11;41.17;99867.88;7085617;27;20229;-78
2023/02/15 12:52:31;;;;;;;18.70;13.77;;;;;;;14.42;40.83;99865.56;7085667;27;20200;-78
2023/02/15 12:55:55;;;;;;;19.20;13.07;;;;;;;14.03;40.84;99848.25;7086155;27;20542;-77
2023/02/15 12:59:22;;;;;;;17.93;14.10;;;;;;;13.52;41.83;99842.31;7086576;27;20226;-79
2023/02/15 13:02:45;;;;;;;20.60;14.10;;;;;;;13.43;42.20;99854.38;7088081;27;20663;-78
2023/02/15 13:06:08;;;;;;;18.00;13.83;;;;;;;14.13;40.95;99822.44;7085443;27;20214;-79
2023/02/15 13:09:38;;;;;;;16.60;12.67;;;;;;;13.53;42.00;99851.31;7086798;27;20211;-79
2023/02/15 13:13:02;;;;;;;20.00;13.97;;;;;;;14.16;40.46;99835.56;7085368;27;20197;-79
2023/02/15 13:16:30;;;;;;;18.90;13.13;;;;;;;14.69;40.05;99829.28;7085593;27;20355;-79
2023/02/15 13:19:54;;;;;;;17.93;13.00;;;;;;;14.30;40.05;99826.50;7086567;27;20196;-78
2023/02/15 13:23:27;;;;;;;17.97;13.90;;;;;;;14.03;40.79;99810.28;7085773;27;20211;-79
2023/02/15 13:26:50;;;;;;;14.70;12.33;;;;;;;14.63;38.33;99762.25;7085585;27;20230;-79
2023/02/15 13:30:23;;;;;;;17.17;12.43;;;;;;;14.50;39.08;99802.94;7086689;27;20204;-78
2023/02/15 13:33:47;;;;;;;19.97;13.43;;;;;;;15.67;37.97;99794.78;7086777;27;20220;-78
2023/02/15 13:37:13;;;;;;;14.43;12.50;;;;;;;14.66;38.82;99796.28;7085597;27;20360;-79
2023/02/15 13:40:38;;;;;;;19.17;15.57;;;;;;;15.15;38.09;99775.81;7086277;27;20760;-78
2023/02/15 13:44:08;;;;;;;14.83;12.73;;;;;;;14.43;39.06;99772.25;7085985;27;20209;-79
2023/02/15 13:47:34;;;;;;;16.47;12.87;;;;;;;14.52;38.63;99784.56;7085544;27;20285;-81
2023/02/15 13:51:05;;;;;;;20.93;16.23;;;;;;;15.43;37.98;99783.75;7090974;27;20264;-80
2023/02/15 13:55:03;;;;;;;14.70;12.67;;;;;;;15.42;37.62;99777.50;7074252;27;20774;-78
2023/02/15 13:58:44;;;;;;;16.00;11.17;;;;;;;15.65;36.53;99766.97;7028853;27;20257;-79
2023/02/15 14:02:25;;;;;;;19.00;14.13;;;;;;;15.45;37.82;99762.66;7076971;27;20273;-77
2023/02/15 14:06:06;;;;;;;19.73;13.50;;;;;;;16.07;36.34;99771.81;7081062;27;20261;-80
2023/02/15 14:09:40;;;;;;;19.60;14.63;;;;;;;15.95;37.30;99770.84;7089168;27;20279;-79
2023/02/15 14:13:30;;;;;;;16.73;12.83;;;;;;;15.68;37.22;99757.56;7089496;27;20214;-78
2023/02/15 14:16:56;;;;;;;18.60;12.20;;;;;;;15.48;37.74;99737.75;7087223;27;20240;-79
2023/02/15 14:20:23;;;;;;;19.87;12.63;;;;;;;15.77;36.71;99758.97;7090898;27;20329;-79
2023/02/15 14:23:54;;;;;;;17.93;12.93;;;;;;;16.19;36.45;99756.47;7089256;27;20219;-79
2023/02/15 14:27:24;;;;;;;17.53;13.47;;;;;;;15.99;37.17;99763.06;7098383;27;20237;-79
2023/02/15 14:30:49;;;;;;;18.57;12.73;;;;;;;16.22;37.29;99747.88;7095545;27;20270;-78
2023/02/15 14:34:19;;;;;;;19.57;12.60;;;;;;;15.98;37.59;99745.09;7066273;27;20294;-78
2023/02/15 14:37:46;;;;;;;18.17;14.47;;;;;;;16.15;36.74;99763.41;7073149;27;20325;-78
2023/02/15 14:41:13;;;;;;;16.37;13.57;;;;;;;16.12;36.97;99768.44;7090809;27;20339;-79
2023/02/15 14:44:39;;;;;;;20.40;15.70;;;;;;;16.01;37.42;99775.41;7082462;27;20200;-79
2023/02/15 14:48:06;;;;;;;15.67;13.80;;;;;;;16.51;36.50;99766.34;7072805;27;20588;-79
2023/02/15 14:51:58;;;;;;;18.60;13.33;;;;;;;16.50;35.91;99761.13;7076397;27;20220;-78
2023/02/15 14:55:36;;;;;;;16.03;12.60;;;;;;;15.90;36.98;99764.34;7088727;27;20239;-78
2023/02/15 14:59:18;;;;;;;25.97;16.10;;;;;;;15.77;37.30;99767.97;7088082;27;20657;-78
2023/02/15 15:02:46;;;;;;;21.37;16.97;;;;;;;16.03;37.67;99767.00;7062612;27;20211;-79
2023/02/15 15:06:07;;;;;;;17.23;14.10;;;;;;;15.83;36.66;99752.66;7070045;27;20205;-78
2023/02/15 15:09:30;;;;;;;24.47;13.80;;;;;;;16.10;36.66;99754.22;7088817;27;20269;-79
2023/02/15 15:12:54;;;;;;;16.63;13.60;;;;;;;16.37;36.23;99756.56;7089241;27;20735;-78
2023/02/15 15:16:30;;;;;;;20.97;15.03;;;;;;;16.38;35.75;99733.78;7088901;27;20340;-78
2023/02/15 15:20:01;;;;;;;27.87;19.13;;;;;;;16.07;36.85;99763.66;7089636;27;20594;-78
2023/02/15 15:23:44;;;;;;;18.40;13.33;;;;;;;15.73;36.89;99711.50;7088645;27;20223;-79
2023/02/15 15:27:45;;;;;;;20.80;13.63;;;;;;;16.26;36.60;99748.25;7088646;27;20238;-79
2023/02/15 15:31:16;;;;;;;16.37;13.03;;;;;;;16.27;36.83;99749.94;7088743;27;20552;-79
2023/02/15 15:35:01;;;;;;;19.30;15.13;;;;;;;15.87;37.24;99749.28;7090385;27;20220;-78
2023/02/15 15:38:33;;;;;;;19.90;14.93;;;;;;;16.17;37.20;99741.41;7086483;27;20615;-78
2023/02/15 15:41:58;;;;;;;17.17;15.07;;;;;;;15.91;37.18;99736.94;7087640;27;20200;-78
2023/02/15 15:45:52;;;;;;;18.90;15.40;;;;;;;15.75;38.18;99755.66;7087514;27;20747;-78
2023/02/15 15:49:16;;;;;;;18.17;14.10;;;;;;;15.72;39.06;99748.75;7086843;27;20315;-78
2023/02/15 15:52:39;;;;;;;18.17;14.93;;;;;;;15.47;39.78;99760.53;7087331;27;20301;-78
2023/02/15 15:56:04;;;;;;;18.23;14.47;;;;;;;15.67;39.91;99770.31;7086099;27;20227;-78
2023/02/15 15:59:27;;;;;;;18.60;14.60;;;;;;;15.32;40.50;99759.91;7086668;27;20233;-77
2023/02/15 16:02:51;;;;;;;22.83;15.17;;;;;;;15.62;39.98;99761.94;7086627;27;20214;-77
2023/02/15 16:06:14;;;;;;;18.13;13.77;;;;;;;15.76;39.49;99760.84;7086541;27;20723;-77
2023/02/15 16:09:36;;;;;;;14.47;10.80;;;;;;;15.25;39.67;99764.50;7086732;27;20211;-77